sensor_id;sensor_type;location;lat;lon;timestamp;pressure;altitude;pressure_sealevel;temperature;humidity
65329;BME280;51941;52.210;5.158;2022-08-14T00:00:11;101120.16;;;22.08;51.24
65329;BME280;51941;52.210;5.158;2022-08-14T00:02:42;101143.81;;;22.24;51.57
65329;BME280;51941;52.210;5.158;2022-08-14T00:05:12;101147.13;;;22.21;51.91
65329;BME280;51941;52.210;5.158;2022-08-14T00:07:39;101145.84;;;22.19;51.82
65329;BME280;51941;52.210;5.158;2022-08-14T00:10:09;101134.03;;;22.15;51.81
65329;BME280;51941;52.210;5.158;2022-08-14T00:12:39;101116.50;;;22.04;51.97
65329;BME280;51941;52.210;5.158;2022-08-14T00:15:10;101126.38;;;22.08;52.09
65329;BME280;51941;52.210;5.158;2022-08-14T00:17:38;101105.41;;;21.92;52.58
65329;BME280;51941;52.210;5.158;2022-08-14T00:20:06;100964.09;;;20.83;52.33
65329;BME280;51941;52.210;5.158;2022-08-14T00:22:35;101107.41;;;21.86;52.11
65329;BME280;51941;52.210;5.158;2022-08-14T00:25:02;101122.78;;;21.99;52.04
65329;BME280;51941;52.210;5.158;2022-08-14T00:27:29;101116.06;;;21.97;52.10
65329;BME280;51941;52.210;5.158;2022-08-14T00:29:56;101116.69;;;21.94;52.16
65329;BME280;51941;52.210;5.158;2022-08-14T00:32:23;101089.28;;;21.73;51.85
65329;BME280;51941;52.210;5.158;2022-08-14T00:34:50;100824.47;;;20.08;51.82
65329;BME280;51941;52.210;5.158;2022-08-14T00:37:16;100844.75;;;20.19;52.01
65329;BME280;51941;52.210;5.158;2022-08-14T00:39:45;100854.38;;;20.20;52.13
65329;BME280;51941;52.210;5.158;2022-08-14T00:42:12;101098.53;;;21.85;52.23
65329;BME280;51941;52.210;5.158;2022-08-14T00:44:40;101100.72;;;21.83;52.15
65329;BME280;51941;52.210;5.158;2022-08-14T00:47:07;101098.91;;;21.79;52.31
65329;BME280;51941;52.210;5.158;2022-08-14T00:49:34;101100.03;;;21.78;52.25
65329;BME280;51941;52.210;5.158;2022-08-14T00:52:01;100823.13;;;19.92;52.19
65329;BME280;51941;52.210;5.158;2022-08-14T00:54:29;101084.19;;;21.58;52.12
65329;BME280;51941;52.210;5.158;2022-08-14T00:56:58;100712.63;;;19.28;52.08
65329;BME280;51941;52.210;5.158;2022-08-14T00:59:26;101053.38;;;21.50;51.94
65329;BME280;51941;52.210;5.158;2022-08-14T01:01:56;101091.31;;;21.67;52.00
65329;BME280;51941;52.210;5.158;2022-08-14T01:04:24;101083.00;;;21.64;52.04
65329;BME280;51941;52.210;5.158;2022-08-14T01:06:53;101078.19;;;21.61;52.20
65329;BME280;51941;52.210;5.158;2022-08-14T01:09:20;101082.91;;;21.55;52.86
65329;BME280;51941;52.210;5.158;2022-08-14T01:11:48;101074.31;;;21.53;52.70
65329;BME280;51941;52.210;5.158;2022-08-14T01:14:16;101067.13;;;21.48;52.92
65329;BME280;51941;52.210;5.158;2022-08-14T01:16:43;100864.16;;;20.11;53.14
65329;BME280;51941;52.210;5.158;2022-08-14T01:19:10;100964.59;;;20.71;52.95
65329;BME280;51941;52.210;5.158;2022-08-14T01:21:55;100878.91;;;20.14;53.05
65329;BME280;51941;52.210;5.158;2022-08-14T01:24:23;101056.66;;;21.33;53.21
65329;BME280;51941;52.210;5.158;2022-08-14T01:26:50;101062.13;;;21.28;53.02
65329;BME280;51941;52.210;5.158;2022-08-14T01:29:18;101050.03;;;21.26;53.23
65329;BME280;51941;52.210;5.158;2022-08-14T01:31:45;100887.78;;;20.14;53.64
65329;BME280;51941;52.210;5.158;2022-08-14T01:34:12;101038.06;;;21.18;53.65
65329;BME280;51941;52.210;5.158;2022-08-14T01:36:39;101042.16;;;21.16;53.66
65329;BME280;51941;52.210;5.158;2022-08-14T01:39:09;101047.31;;;21.12;53.88
65329;BME280;51941;52.210;5.158;2022-08-14T01:41:36;101035.25;;;21.09;53.94
65329;BME280;51941;52.210;5.158;2022-08-14T01:44:05;101028.88;;;21.05;53.83
65329;BME280;51941;52.210;5.158;2022-08-14T01:46:32;101032.44;;;21.01;54.75
65329;BME280;51941;52.210;5.158;2022-08-14T01:49:00;101020.81;;;20.87;54.33
65329;BME280;51941;52.210;5.158;2022-08-14T01:51:30;100984.94;;;20.59;54.55
65329;BME280;51941;52.210;5.158;2022-08-14T01:54:00;100985.75;;;20.59;54.28
65329;BME280;51941;52.210;5.158;2022-08-14T01:56:29;101026.19;;;20.87;54.67
65329;BME280;51941;52.210;5.158;2022-08-14T01:59:03;101016.69;;;20.75;54.49
65329;BME280;51941;52.210;5.158;2022-08-14T02:01:30;101024.38;;;20.82;54.33
65329;BME280;51941;52.210;5.158;2022-08-14T02:03:57;100914.44;;;20.11;54.63
65329;BME280;51941;52.210;5.158;2022-08-14T02:06:24;100842.06;;;19.63;54.55
65329;BME280;51941;52.210;5.158;2022-08-14T02:08:52;101016.19;;;20.73;55.27
65329;BME280;51941;52.210;5.158;2022-08-14T02:11:19;101014.09;;;20.70;54.98
65329;BME280;51941;52.210;5.158;2022-08-14T02:13:53;100935.22;;;20.05;55.05
65329;BME280;51941;52.210;5.158;2022-08-14T02:16:22;101012.78;;;20.68;54.88
65329;BME280;51941;52.210;5.158;2022-08-14T02:18:52;101004.19;;;20.66;54.81
65329;BME280;51941;52.210;5.158;2022-08-14T02:21:19;101009.38;;;20.62;55.02
65329;BME280;51941;52.210;5.158;2022-08-14T02:23:47;101036.56;;;20.61;54.85
65329;BME280;51941;52.210;5.158;2022-08-14T02:26:17;100974.88;;;20.32;55.32
65329;BME280;51941;52.210;5.158;2022-08-14T02:28:45;100956.03;;;20.18;55.17
65329;BME280;51941;52.210;5.158;2022-08-14T02:31:14;100633.75;;;18.07;55.37
65329;BME280;51941;52.210;5.158;2022-08-14T02:33:41;100969.94;;;20.20;55.31
65329;BME280;51941;52.210;5.158;2022-08-14T02:36:09;100986.44;;;20.32;55.38
65329;BME280;51941;52.210;5.158;2022-08-14T02:38:39;101007.50;;;20.44;55.72
65329;BME280;51941;52.210;5.158;2022-08-14T02:41:10;100848.38;;;19.35;55.90
65329;BME280;51941;52.210;5.158;2022-08-14T02:43:39;100973.75;;;20.19;55.59
65329;BME280;51941;52.210;5.158;2022-08-14T02:46:07;101002.34;;;20.29;55.75
65329;BME280;51941;52.210;5.158;2022-08-14T02:48:38;101013.84;;;20.34;55.77
65329;BME280;51941;52.210;5.158;2022-08-14T02:51:07;101009.03;;;20.31;55.97
65329;BME280;51941;52.210;5.158;2022-08-14T02:53:36;100997.75;;;20.29;56.20
65329;BME280;51941;52.210;5.158;2022-08-14T02:56:06;101002.94;;;20.26;56.35
65329;BME280;51941;52.210;5.158;2022-08-14T02:58:35;100967.75;;;20.03;56.30
65329;BME280;51941;52.210;5.158;2022-08-14T03:01:03;100992.25;;;20.21;56.39
65329;BME280;51941;52.210;5.158;2022-08-14T03:03:30;100997.94;;;20.19;56.30
65329;BME280;51941;52.210;5.158;2022-08-14T03:05:58;100995.53;;;20.18;56.35
65329;BME280;51941;52.210;5.158;2022-08-14T03:08:25;100675.72;;;18.16;56.27
65329;BME280;51941;52.210;5.158;2022-08-14T03:10:58;100984.81;;;20.13;56.56
65329;BME280;51941;52.210;5.158;2022-08-14T03:13:25;100942.03;;;19.79;56.37
65329;BME280;51941;52.210;5.158;2022-08-14T03:15:53;100947.84;;;19.86;56.92
65329;BME280;51941;52.210;5.158;2022-08-14T03:18:21;100981.69;;;20.06;57.16
65329;BME280;51941;52.210;5.158;2022-08-14T03:20:49;100981.97;;;20.04;57.19
65329;BME280;51941;52.210;5.158;2022-08-14T03:23:18;100970.88;;;19.92;57.51
65329;BME280;51941;52.210;5.158;2022-08-14T03:25:45;100835.00;;;19.06;57.47
65329;BME280;51941;52.210;5.158;2022-08-14T03:28:13;100974.56;;;19.96;57.57
65329;BME280;51941;52.210;5.158;2022-08-14T03:30:40;100982.91;;;19.94;57.42
65329;BME280;51941;52.210;5.158;2022-08-14T03:33:08;100970.88;;;19.92;57.78
65329;BME280;51941;52.210;5.158;2022-08-14T03:35:35;100980.03;;;19.91;57.78
65329;BME280;51941;52.210;5.158;2022-08-14T03:38:06;100974.94;;;19.89;57.75
65329;BME280;51941;52.210;5.158;2022-08-14T03:40:36;100875.59;;;19.23;57.55
65329;BME280;51941;52.210;5.158;2022-08-14T03:43:04;100973.91;;;19.85;57.66
65329;BME280;51941;52.210;5.158;2022-08-14T03:45:32;100961.44;;;19.76;57.61
65329;BME280;51941;52.210;5.158;2022-08-14T03:48:01;100799.47;;;18.71;58.01
65329;BME280;51941;52.210;5.158;2022-08-14T03:50:29;100785.69;;;18.59;58.28
65329;BME280;51941;52.210;5.158;2022-08-14T03:52:57;100927.13;;;19.49;58.44
65329;BME280;51941;52.210;5.158;2022-08-14T03:55:25;100826.75;;;18.78;58.45
65329;BME280;51941;52.210;5.158;2022-08-14T03:57:54;100921.88;;;19.39;58.54
65329;BME280;51941;52.210;5.158;2022-08-14T04:00:21;100905.34;;;19.26;58.70
65329;BME280;51941;52.210;5.158;2022-08-14T04:02:48;100956.97;;;19.66;58.80
65329;BME280;51941;52.210;5.158;2022-08-14T04:05:15;100960.22;;;19.63;58.74
65329;BME280;51941;52.210;5.158;2022-08-14T04:07:42;100956.22;;;19.60;59.03
65329;BME280;51941;52.210;5.158;2022-08-14T04:10:09;100840.22;;;18.73;59.07
65329;BME280;51941;52.210;5.158;2022-08-14T04:12:35;100890.63;;;19.00;59.14
65329;BME280;51941;52.210;5.158;2022-08-14T04:15:05;100872.72;;;18.96;59.54
65329;BME280;51941;52.210;5.158;2022-08-14T04:17:32;100963.56;;;19.55;60.09
65329;BME280;51941;52.210;5.158;2022-08-14T04:19:58;100963.91;;;19.48;59.27
65329;BME280;51941;52.210;5.158;2022-08-14T04:22:28;100960.72;;;19.46;59.85
65329;BME280;51941;52.210;5.158;2022-08-14T04:24:56;100806.44;;;18.48;59.39
65329;BME280;51941;52.210;5.158;2022-08-14T04:27:22;100880.28;;;18.88;59.53
65329;BME280;51941;52.210;5.158;2022-08-14T04:29:49;100924.41;;;19.25;59.71
65329;BME280;51941;52.210;5.158;2022-08-14T04:32:17;100855.75;;;18.76;60.31
65329;BME280;51941;52.210;5.158;2022-08-14T04:34:46;100955.69;;;19.40;60.16
65329;BME280;51941;52.210;5.158;2022-08-14T04:37:13;100906.59;;;19.10;60.28
65329;BME280;51941;52.210;5.158;2022-08-14T04:39:59;100946.03;;;19.39;60.07
65329;BME280;51941;52.210;5.158;2022-08-14T04:42:43;100901.31;;;19.05;60.00
65329;BME280;51941;52.210;5.158;2022-08-14T04:45:28;100928.47;;;19.22;60.07
65329;BME280;51941;52.210;5.158;2022-08-14T04:48:07;100949.00;;;19.37;60.88
65329;BME280;51941;52.210;5.158;2022-08-14T04:50:42;100914.09;;;19.13;60.84
65329;BME280;51941;52.210;5.158;2022-08-14T04:53:10;100948.44;;;19.40;61.29
65329;BME280;51941;52.210;5.158;2022-08-14T04:55:37;100901.47;;;19.14;60.66
65329;BME280;51941;52.210;5.158;2022-08-14T04:58:04;100940.59;;;19.44;60.39
65329;BME280;51941;52.210;5.158;2022-08-14T05:00:31;100823.91;;;18.70;60.52
65329;BME280;51941;52.210;5.158;2022-08-14T05:02:58;100945.31;;;19.52;60.46
65329;BME280;51941;52.210;5.158;2022-08-14T05:05:30;100855.50;;;18.97;60.71
65329;BME280;51941;52.210;5.158;2022-08-14T05:08:03;100758.50;;;18.42;60.91
65329;BME280;51941;52.210;5.158;2022-08-14T05:10:35;100918.28;;;19.48;60.73
65329;BME280;51941;52.210;5.158;2022-08-14T05:13:02;100945.44;;;19.65;60.53
65329;BME280;51941;52.210;5.158;2022-08-14T05:15:32;100928.16;;;19.72;60.74
65329;BME280;51941;52.210;5.158;2022-08-14T05:18:01;100932.38;;;19.78;60.65
65329;BME280;51941;52.210;5.158;2022-08-14T05:20:30;100932.81;;;19.85;60.95
65329;BME280;51941;52.210;5.158;2022-08-14T05:22:57;100819.31;;;19.18;60.33
65329;BME280;51941;52.210;5.158;2022-08-14T05:25:25;100928.84;;;20.01;59.98
65329;BME280;51941;52.210;5.158;2022-08-14T05:27:52;100927.94;;;20.06;60.09
65329;BME280;51941;52.210;5.158;2022-08-14T05:30:25;100922.81;;;20.09;60.22
65329;BME280;51941;52.210;5.158;2022-08-14T05:32:52;100803.25;;;19.37;60.57
65329;BME280;51941;52.210;5.158;2022-08-14T05:35:19;100771.25;;;19.21;60.27
65329;BME280;51941;52.210;5.158;2022-08-14T05:37:47;100818.47;;;19.60;60.10
65329;BME280;51941;52.210;5.158;2022-08-14T05:40:14;100859.53;;;19.98;60.18
65329;BME280;51941;52.210;5.158;2022-08-14T05:42:41;100790.13;;;19.54;60.14
65329;BME280;51941;52.210;5.158;2022-08-14T05:45:09;100921.25;;;20.40;60.24
65329;BME280;51941;52.210;5.158;2022-08-14T05:47:40;100684.84;;;19.01;59.82
65329;BME280;51941;52.210;5.158;2022-08-14T05:50:09;100909.25;;;20.52;60.04
65329;BME280;51941;52.210;5.158;2022-08-14T05:52:36;100798.28;;;19.81;59.84
65329;BME280;51941;52.210;5.158;2022-08-14T05:55:06;100905.06;;;20.59;60.22
65329;BME280;51941;52.210;5.158;2022-08-14T05:57:33;100903.09;;;20.65;60.24
65329;BME280;51941;52.210;5.158;2022-08-14T06:00:00;100906.50;;;20.70;59.88
65329;BME280;51941;52.210;5.158;2022-08-14T06:02:29;100906.41;;;20.75;59.63
65329;BME280;51941;52.210;5.158;2022-08-14T06:04:57;100881.97;;;20.58;59.64
65329;BME280;51941;52.210;5.158;2022-08-14T06:07:26;100939.69;;;20.80;59.40
65329;BME280;51941;52.210;5.158;2022-08-14T06:09:52;100876.00;;;20.61;59.57
65329;BME280;51941;52.210;5.158;2022-08-14T06:12:20;100908.31;;;20.89;59.56
65329;BME280;51941;52.210;5.158;2022-08-14T06:14:47;100908.13;;;20.99;59.34
65329;BME280;51941;52.210;5.158;2022-08-14T06:17:14;100828.34;;;20.48;59.43
65329;BME280;51941;52.210;5.158;2022-08-14T06:19:41;100665.25;;;19.56;59.09
65329;BME280;51941;52.210;5.158;2022-08-14T06:22:08;100667.06;;;19.75;58.92
65329;BME280;51941;52.210;5.158;2022-08-14T06:24:34;100922.69;;;21.39;59.01
65329;BME280;51941;52.210;5.158;2022-08-14T06:27:02;100911.19;;;22.10;58.21
65329;BME280;51941;52.210;5.158;2022-08-14T06:29:30;100913.88;;;23.17;56.31
65329;BME280;51941;52.210;5.158;2022-08-14T06:31:57;100686.69;;;22.75;53.95
65329;BME280;51941;52.210;5.158;2022-08-14T06:34:24;100599.53;;;23.09;51.86
65329;BME280;51941;52.210;5.158;2022-08-14T06:36:51;100826.81;;;25.37;49.86
65329;BME280;51941;52.210;5.158;2022-08-14T06:39:20;100912.16;;;26.47;47.04
65329;BME280;51941;52.210;5.158;2022-08-14T06:41:47;100718.09;;;25.72;47.06
65329;BME280;51941;52.210;5.158;2022-08-14T06:44:14;100892.91;;;27.34;45.94
65329;BME280;51941;52.210;5.158;2022-08-14T06:46:43;100730.66;;;26.58;45.00
65329;BME280;51941;52.210;5.158;2022-08-14T06:49:10;100919.31;;;28.26;44.00
65329;BME280;51941;52.210;5.158;2022-08-14T06:51:36;100930.25;;;28.57;43.10
65329;BME280;51941;52.210;5.158;2022-08-14T06:54:03;100885.31;;;28.63;42.64
65329;BME280;51941;52.210;5.158;2022-08-14T06:56:31;100918.78;;;29.11;41.84
65329;BME280;51941;52.210;5.158;2022-08-14T06:58:58;100918.94;;;29.34;41.23
65329;BME280;51941;52.210;5.158;2022-08-14T07:01:25;100925.22;;;29.53;40.32
65329;BME280;51941;52.210;5.158;2022-08-14T07:04:11;100857.63;;;29.27;39.81
65329;BME280;51941;52.210;5.158;2022-08-14T07:06:56;100919.59;;;30.00;39.56
65329;BME280;51941;52.210;5.158;2022-08-14T07:09:23;100914.16;;;30.20;38.97
65329;BME280;51941;52.210;5.158;2022-08-14T07:11:50;100854.44;;;29.99;38.83
65329;BME280;51941;52.210;5.158;2022-08-14T07:14:17;100910.47;;;30.54;38.20
65329;BME280;51941;52.210;5.158;2022-08-14T07:16:44;100736.75;;;29.58;38.08
65329;BME280;51941;52.210;5.158;2022-08-14T07:19:15;100705.09;;;29.54;37.45
65329;BME280;51941;52.210;5.158;2022-08-14T07:21:42;100895.91;;;30.92;36.95
65329;BME280;51941;52.210;5.158;2022-08-14T07:24:09;100700.63;;;29.88;36.59
65329;BME280;51941;52.210;5.158;2022-08-14T07:26:44;100569.91;;;29.11;35.98
65329;BME280;51941;52.210;5.158;2022-08-14T07:29:14;100781.69;;;30.29;36.29
65329;BME280;51941;52.210;5.158;2022-08-14T07:31:41;100862.41;;;30.72;36.47
65329;BME280;51941;52.210;5.158;2022-08-14T07:34:08;100518.22;;;28.95;36.48
65329;BME280;51941;52.210;5.158;2022-08-14T07:36:36;100578.34;;;29.48;35.50
65329;BME280;51941;52.210;5.158;2022-08-14T07:39:03;100776.00;;;30.91;35.30
65329;BME280;51941;52.210;5.158;2022-08-14T07:41:33;100569.53;;;29.81;35.28
65329;BME280;51941;52.210;5.158;2022-08-14T07:44:01;100760.66;;;31.12;34.60
65329;BME280;51941;52.210;5.158;2022-08-14T07:46:28;100893.16;;;32.05;34.53
65329;BME280;51941;52.210;5.158;2022-08-14T07:48:56;100757.94;;;31.12;34.34
65329;BME280;51941;52.210;5.158;2022-08-14T07:51:23;100896.97;;;31.97;34.27
65329;BME280;51941;52.210;5.158;2022-08-14T07:53:52;100809.66;;;31.55;33.90
65329;BME280;51941;52.210;5.158;2022-08-14T07:56:19;100895.66;;;32.20;33.99
65329;BME280;51941;52.210;5.158;2022-08-14T07:58:47;100563.56;;;30.24;33.53
65329;BME280;51941;52.210;5.158;2022-08-14T08:01:19;100564.06;;;30.33;33.08
65329;BME280;51941;52.210;5.158;2022-08-14T08:03:48;100601.47;;;30.29;32.78
65329;BME280;51941;52.210;5.158;2022-08-14T08:06:15;100890.06;;;32.10;32.85
65329;BME280;51941;52.210;5.158;2022-08-14T08:08:42;100900.97;;;32.40;33.20
65329;BME280;51941;52.210;5.158;2022-08-14T08:11:12;100895.59;;;32.13;32.84
65329;BME280;51941;52.210;5.158;2022-08-14T08:13:40;100847.22;;;32.24;32.89
65329;BME280;51941;52.210;5.158;2022-08-14T08:16:09;100818.19;;;32.20;33.11
65329;BME280;51941;52.210;5.158;2022-08-14T08:18:36;100822.03;;;32.12;32.84
65329;BME280;51941;52.210;5.158;2022-08-14T08:21:04;100872.25;;;32.71;32.52
65329;BME280;51941;52.210;5.158;2022-08-14T08:23:32;100885.88;;;32.60;32.02
65329;BME280;51941;52.210;5.158;2022-08-14T08:25:59;100853.44;;;32.69;32.22
65329;BME280;51941;52.210;5.158;2022-08-14T08:28:29;100874.44;;;32.98;31.64
65329;BME280;51941;52.210;5.158;2022-08-14T08:30:58;100773.84;;;32.07;31.88
65329;BME280;51941;52.210;5.158;2022-08-14T08:33:28;100660.06;;;31.66;31.90
65329;BME280;51941;52.210;5.158;2022-08-14T08:35:57;100862.69;;;32.94;31.75
65329;BME280;51941;52.210;5.158;2022-08-14T08:38:26;100550.91;;;30.72;32.19
65329;BME280;51941;52.210;5.158;2022-08-14T08:40:55;100754.94;;;31.55;32.44
65329;BME280;51941;52.210;5.158;2022-08-14T08:43:24;100732.66;;;30.89;33.29
65329;BME280;51941;52.210;5.158;2022-08-14T08:45:55;100801.50;;;30.98;33.98
65329;BME280;51941;52.210;5.158;2022-08-14T08:48:23;100611.34;;;29.20;34.32
65329;BME280;51941;52.210;5.158;2022-08-14T08:50:54;100524.00;;;28.51;34.68
65329;BME280;51941;52.210;5.158;2022-08-14T08:53:30;100524.66;;;28.45;34.67
65329;BME280;51941;52.210;5.158;2022-08-14T08:55:58;100721.06;;;29.75;34.94
65329;BME280;51941;52.210;5.158;2022-08-14T08:58:26;100721.72;;;29.68;35.45
65329;BME280;51941;52.210;5.158;2022-08-14T09:00:58;100538.00;;;28.34;35.64
65329;BME280;51941;52.210;5.158;2022-08-14T09:03:27;100634.66;;;28.79;36.22
65329;BME280;51941;52.210;5.158;2022-08-14T09:06:00;100730.50;;;29.39;36.18
65329;BME280;51941;52.210;5.158;2022-08-14T09:08:31;100708.41;;;29.24;36.03
65329;BME280;51941;52.210;5.158;2022-08-14T09:11:01;100749.94;;;29.56;36.04
65329;BME280;51941;52.210;5.158;2022-08-14T09:13:28;100779.03;;;29.91;35.88
65329;BME280;51941;52.210;5.158;2022-08-14T09:15:57;100770.25;;;29.78;35.81
65329;BME280;51941;52.210;5.158;2022-08-14T09:18:26;100546.50;;;28.48;35.82
65329;BME280;51941;52.210;5.158;2022-08-14T09:20:55;100609.63;;;28.73;36.24
65329;BME280;51941;52.210;5.158;2022-08-14T09:23:23;100678.13;;;29.29;35.72
65329;BME280;51941;52.210;5.158;2022-08-14T09:25:50;100820.22;;;30.24;35.33
65329;BME280;51941;52.210;5.158;2022-08-14T09:28:18;100821.97;;;30.36;35.21
65329;BME280;51941;52.210;5.158;2022-08-14T09:30:48;100767.59;;;30.04;35.59
65329;BME280;51941;52.210;5.158;2022-08-14T09:33:33;100778.78;;;30.19;35.74
65329;BME280;51941;52.210;5.158;2022-08-14T09:36:26;100832.63;;;30.64;35.52
65329;BME280;51941;52.210;5.158;2022-08-14T09:39:04;100755.34;;;30.18;35.46
65329;BME280;51941;52.210;5.158;2022-08-14T09:41:45;100822.22;;;30.73;34.91
65329;BME280;51941;52.210;5.158;2022-08-14T09:44:26;100828.50;;;30.77;34.84
65329;BME280;51941;52.210;5.158;2022-08-14T09:46:54;100814.13;;;30.80;34.97
65329;BME280;51941;52.210;5.158;2022-08-14T09:49:31;100678.28;;;30.05;34.07
65329;BME280;51941;52.210;5.158;2022-08-14T09:52:03;100586.44;;;29.44;34.43
65329;BME280;51941;52.210;5.158;2022-08-14T09:54:41;100703.59;;;30.25;33.90
65329;BME280;51941;52.210;5.158;2022-08-14T09:57:09;100687.78;;;30.11;33.83
65329;BME280;51941;52.210;5.158;2022-08-14T09:59:40;100790.03;;;30.89;33.90
65329;BME280;51941;52.210;5.158;2022-08-14T10:02:18;100729.72;;;30.49;33.98
65329;BME280;51941;52.210;5.158;2022-08-14T10:04:58;100792.94;;;31.00;34.23
65329;BME280;51941;52.210;5.158;2022-08-14T10:07:29;100788.63;;;30.99;34.02
65329;BME280;51941;52.210;5.158;2022-08-14T10:09:56;100792.06;;;30.92;33.51
65329;BME280;51941;52.210;5.158;2022-08-14T10:12:23;100779.41;;;30.84;33.67
65329;BME280;51941;52.210;5.158;2022-08-14T10:14:51;100794.38;;;30.94;33.50
65329;BME280;51941;52.210;5.158;2022-08-14T10:17:21;100762.88;;;31.03;33.11
65329;BME280;51941;52.210;5.158;2022-08-14T10:19:52;100768.06;;;31.12;33.28
65329;BME280;51941;52.210;5.158;2022-08-14T10:22:23;100758.88;;;31.24;33.69
65329;BME280;51941;52.210;5.158;2022-08-14T10:24:52;100768.31;;;31.26;33.97
65329;BME280;51941;52.210;5.158;2022-08-14T10:27:22;100675.81;;;30.72;33.35
65329;BME280;51941;52.210;5.158;2022-08-14T10:29:50;100742.72;;;31.15;33.08
65329;BME280;51941;52.210;5.158;2022-08-14T10:32:18;100748.00;;;31.27;33.00
65329;BME280;51941;52.210;5.158;2022-08-14T10:34:48;100696.78;;;30.94;32.84
65329;BME280;51941;52.210;5.158;2022-08-14T10:37:17;100574.28;;;30.10;33.02
65329;BME280;51941;52.210;5.158;2022-08-14T10:39:58;100739.09;;;31.34;32.44
65329;BME280;51941;52.210;5.158;2022-08-14T10:42:34;100722.63;;;31.30;32.62
65329;BME280;51941;52.210;5.158;2022-08-14T10:45:02;100734.06;;;31.39;32.43
65329;BME280;51941;52.210;5.158;2022-08-14T10:47:34;100723.53;;;31.41;32.40
65329;BME280;51941;52.210;5.158;2022-08-14T10:50:02;100670.84;;;31.14;32.32
65329;BME280;51941;52.210;5.158;2022-08-14T10:52:32;100724.56;;;31.63;32.17
65329;BME280;51941;52.210;5.158;2022-08-14T10:55:06;100648.00;;;31.30;31.86
65329;BME280;51941;52.210;5.158;2022-08-14T10:57:46;100689.69;;;31.57;31.47
65329;BME280;51941;52.210;5.158;2022-08-14T11:00:15;100613.38;;;31.07;31.28
65329;BME280;51941;52.210;5.158;2022-08-14T11:02:42;100723.25;;;31.87;31.88
65329;BME280;51941;52.210;5.158;2022-08-14T11:05:11;100719.28;;;31.84;31.83
65329;BME280;51941;52.210;5.158;2022-08-14T11:07:41;100722.03;;;31.84;32.11
65329;BME280;51941;52.210;5.158;2022-08-14T11:10:10;100572.97;;;30.94;31.76
65329;BME280;51941;52.210;5.158;2022-08-14T11:12:41;100543.13;;;30.74;31.39
65329;BME280;51941;52.210;5.158;2022-08-14T11:15:14;100705.94;;;31.76;31.16
65329;BME280;51941;52.210;5.158;2022-08-14T11:17:49;100496.25;;;30.39;30.82
65329;BME280;51941;52.210;5.158;2022-08-14T11:20:17;100700.50;;;31.83;31.06
65329;BME280;51941;52.210;5.158;2022-08-14T11:22:46;100691.06;;;31.77;31.05
65329;BME280;51941;52.210;5.158;2022-08-14T11:25:17;100704.81;;;31.84;31.12
65329;BME280;51941;52.210;5.158;2022-08-14T11:27:49;100711.13;;;31.88;30.93
65329;BME280;51941;52.210;5.158;2022-08-14T11:30:18;100693.75;;;31.70;30.35
65329;BME280;51941;52.210;5.158;2022-08-14T11:32:45;100697.75;;;31.79;29.92
65329;BME280;51941;52.210;5.158;2022-08-14T11:35:15;100381.03;;;29.63;30.80
65329;BME280;51941;52.210;5.158;2022-08-14T11:38:05;100365.03;;;29.58;30.54
65329;BME280;51941;52.210;5.158;2022-08-14T11:40:35;100441.53;;;29.98;30.71
65329;BME280;51941;52.210;5.158;2022-08-14T11:43:19;100430.19;;;29.96;30.02
65329;BME280;51941;52.210;5.158;2022-08-14T11:45:47;100459.06;;;30.27;30.16
65329;BME280;51941;52.210;5.158;2022-08-14T11:48:17;100642.00;;;31.54;30.26
65329;BME280;51941;52.210;5.158;2022-08-14T11:50:47;100297.69;;;29.36;30.25
65329;BME280;51941;52.210;5.158;2022-08-14T11:53:22;100570.41;;;31.08;29.73
65329;BME280;51941;52.210;5.158;2022-08-14T11:55:54;100569.63;;;31.11;29.99
65329;BME280;51941;52.210;5.158;2022-08-14T11:58:25;100697.44;;;31.92;29.41
65329;BME280;51941;52.210;5.158;2022-08-14T12:00:54;100700.97;;;31.88;29.72
65329;BME280;51941;52.210;5.158;2022-08-14T12:03:36;100336.63;;;29.62;29.46
65329;BME280;51941;52.210;5.158;2022-08-14T12:06:13;100345.16;;;29.61;29.99
65329;BME280;51941;52.210;5.158;2022-08-14T12:08:49;100475.34;;;30.54;30.01
65329;BME280;51941;52.210;5.158;2022-08-14T12:11:19;100558.75;;;31.14;29.93
65329;BME280;51941;52.210;5.158;2022-08-14T12:13:46;100583.66;;;31.46;29.48
65329;BME280;51941;52.210;5.158;2022-08-14T12:16:14;100546.97;;;31.51;29.02
65329;BME280;51941;52.210;5.158;2022-08-14T12:18:43;100375.31;;;30.38;28.74
65329;BME280;51941;52.210;5.158;2022-08-14T12:21:14;100334.69;;;30.33;28.66
65329;BME280;51941;52.210;5.158;2022-08-14T12:23:41;100659.59;;;32.62;27.73
65329;BME280;51941;52.210;5.158;2022-08-14T12:26:13;100358.16;;;30.82;27.98
65329;BME280;51941;52.210;5.158;2022-08-14T12:28:48;100513.34;;;32.09;27.45
65329;BME280;51941;52.210;5.158;2022-08-14T12:31:22;100290.13;;;30.70;27.44
65329;BME280;51941;52.210;5.158;2022-08-14T12:34:06;100293.03;;;30.91;27.02
65329;BME280;51941;52.210;5.158;2022-08-14T12:36:34;100327.59;;;31.24;26.69
65329;BME280;51941;52.210;5.158;2022-08-14T12:39:04;100378.22;;;31.62;26.21
65329;BME280;51941;52.210;5.158;2022-08-14T12:41:49;100304.84;;;31.13;26.22
65329;BME280;51941;52.210;5.158;2022-08-14T12:44:28;100475.53;;;32.36;26.17
65329;BME280;51941;52.210;5.158;2022-08-14T12:47:05;100500.72;;;32.77;26.22
65329;BME280;51941;52.210;5.158;2022-08-14T12:49:34;100322.00;;;31.75;26.24
65329;BME280;51941;52.210;5.158;2022-08-14T12:52:05;100488.59;;;32.92;25.83
65329;BME280;51941;52.210;5.158;2022-08-14T12:54:34;100617.56;;;33.70;25.73
65329;BME280;51941;52.210;5.158;2022-08-14T12:57:12;100302.78;;;31.61;25.73
65329;BME280;51941;52.210;5.158;2022-08-14T12:59:39;100289.00;;;31.36;26.04
65329;BME280;51941;52.210;5.158;2022-08-14T13:02:19;100603.84;;;33.49;25.58